Stations météo

réclame
Mon MeteoGroup
Feldberg/Schwarzwald, Allemagne (10908): Température de l'air & dewpoint: 12.11.2018 05:00:00 - 18.11.2018 05:00:00 (CET)Feldberg/Schwarzwald, Allemagne (10908): Température de l'air 5cm & Température de l'air -5cm: 12.11.2018 05:00:00 - 18.11.2018 05:00:00 (CET)Feldberg/Schwarzwald, Allemagne (10908): Température de l'air -20cm & Température de l'air -100cm: 12.11.2018 05:00:00 - 18.11.2018 05:00:00 (CET)Feldberg/Schwarzwald, Allemagne (10908): Vitesse du vent & gusts: 12.11.2018 05:00:00 - 18.11.2018 05:00:00 (CET)Feldberg/Schwarzwald, Allemagne (10908): Direction du vent: 12.11.2018 05:00:00 - 18.11.2018 05:00:00 (CET)Feldberg/Schwarzwald, Allemagne (10908): visibility: 12.11.2018 05:00:00 - 18.11.2018 05:00:00 (CET)Feldberg/Schwarzwald, Allemagne (10908): Ensoleillement: 12.11.2018 05:00:00 - 18.11.2018 05:00:00 (CET)Feldberg/Schwarzwald, Allemagne (10908): Quantités de précipitations: 12.11.2018 05:00:00 - 18.11.2018 05:00:00 (CET)
Date & Time tt [°C] td [°C] tt 5cm [°C] tt -5cm [°C] tt -20cm [°C] tt -100cm [°C] ff [km/h] ff [knt] fx [km/h] fx [knt] dd vv [km] sd [min] rr [mm]
18.11.2018 05:00:00 -3,0 -6,9 -4,7 -1,3 1,7 6,4 72 39 84 45 E 22 0 0,0
18.11.2018 04:00:00 -2,7 -6,7 -4,7 -1,3 1,7 6,4 66 36 77 42 E 24 0 0,0
18.11.2018 03:00:00 -3,3 -6,5 -5,0 -1,2 1,7 6,4 62 33 79 42 E 13 0 0,0
18.11.2018 02:00:00 -5,2 -6,7 -6,1 -1,1 1,7 6,4 68 37 79 43 E 1,1 0 0,0
18.11.2018 01:00:00 -3,3 -8,0 -5,0 -1,0 1,8 6,4 66 36 81 44 E 33 0 0,0
18.11.2018 00:00:00 -1,8 -8,2 -3,7 -0,9 1,8 6,4 72 39 80 43 E 52 0 0,0
17.11.2018 23:00:00 -3,8 -7,6 -5,1 -0,8 1,8 6,4 66 36 81 44 E 41 0 0,0
17.11.2018 22:00:00 -4,0 -7,2 -5,2 -0,7 1,8 6,4 64 35 80 43 E 29 0 0,0
17.11.2018 21:00:00 -3,9 -5,9 -4,9 -0,6 1,9 6,4 63 34 84 45 E 22 0 0,0
17.11.2018 20:00:00 -3,5 -5,5 -4,3 -0,5 1,9 6,4 66 35 80 43 E 25 0 0,0
17.11.2018 19:00:00 -3,0 -4,9 -3,8 -0,3 1,9 6,4 66 35 79 43 E 21 0 0,0
17.11.2018 18:00:00 -2,6 -4,7 -3,6 -0,2 1,9 6,5 64 35 78 42 E 25 0 0,0
17.11.2018 17:00:00 -2,1 -4,8 -3,2 -0,1 1,9 6,5 59 32 77 42 E 27 28 0,0
17.11.2018 16:00:00 -2,1 -4,7 -2,1 -0,1 2,0 6,5 50 27 61 33 E 21 60 0,0
17.11.2018 15:00:00 -2,0 -5,3 -0,8 -0,1 2,0 6,5 48 26 66 36 E 18 60 0,0
17.11.2018 14:00:00 -1,3 -7,3 0,5 -0,2 2,0 6,5 52 28 66 35 E 42 60 0,0
17.11.2018 13:00:00 -0,9 -6,5 1,9 -0,2 2,0 6,5 47 26 68 37 ESE 30 60 0,0
17.11.2018 12:00:00 -3,1 -5,3 0,3 -0,3 2,0 6,5 51 27 62 34 ESE 39 43 0,0
17.11.2018 11:00:00 -5,4 -6,2 -3,8 -0,4 2,1 6,5 41 22 59 32 ESE - 1 0,0
17.11.2018 10:00:00 -5,9 -6,6 -4,7 -0,4 2,1 6,5 48 26 79 43 E - 35 0,0
17.11.2018 09:00:00 -2,6 -8,5 -3,6 -0,4 2,1 6,5 66 35 80 43 E 49 44 0,0
17.11.2018 08:00:00 -1,9 -10,0 -4,5 -0,3 2,2 6,5 69 37 80 43 E 33 0 0,0
17.11.2018 07:00:00 -0,1 -13,0 -2,2 -0,2 2,2 6,5 71 38 83 45 E 54 0 0,0
17.11.2018 06:00:00 -1,0 -11,2 -3,0 -0,1 2,2 6,5 68 37 84 46 E 47 0 0,0
17.11.2018 05:00:00 1,0 -13,5 -1,1 0,0 2,3 6,5 64 34 80 43 E 59 0 0,0
17.11.2018 04:00:00 -0,4 -9,8 -2,1 0,0 2,3 6,5 70 38 81 44 E 51 0 0,0
17.11.2018 03:00:00 0,7 -12,0 -1,3 0,1 2,3 6,5 60 33 76 41 E 57 0 0,0
17.11.2018 02:00:00 1,5 -12,7 -0,5 0,1 2,4 6,5 62 34 86 47 E 59 0 0,0
17.11.2018 01:00:00 2,5 -14,4 0,3 0,1 2,4 6,5 74 40 91 49 E 51 0 0,0
17.11.2018 00:00:00 2,7 -13,8 0,1 0,2 2,5 6,6 74 40 92 50 E 57 0 0,0
16.11.2018 23:00:00 1,0 -11,1 -1,3 0,2 2,5 6,6 74 40 87 47 E 57 0 0,0
16.11.2018 22:00:00 0,0 -10,5 -2,0 0,3 2,5 6,6 71 38 80 43 E 45 0 0,0
16.11.2018 21:00:00 0,4 -11,1 -1,8 0,4 2,6 6,6 68 37 76 41 E 56 0 0,0
16.11.2018 20:00:00 1,2 -13,4 -0,8 0,5 2,6 6,6 64 35 88 47 E 67 0 0,0
16.11.2018 19:00:00 1,5 -12,6 -0,6 0,5 2,6 6,6 76 41 86 47 E 65 0 0,0
16.11.2018 18:00:00 1,0 -11,4 -1,3 0,6 2,7 6,6 67 36 78 42 E 56 0 0,0
16.11.2018 17:00:00 2,4 -14,9 0,2 0,7 2,7 6,6 61 33 81 44 E 75 30 0,0
16.11.2018 16:00:00 3,1 -15,1 1,7 0,9 2,7 6,6 64 35 79 43 E 71 60 0,0
16.11.2018 15:00:00 3,2 -13,9 3,0 1,2 2,7 6,6 57 31 70 38 E 54 60 0,0
16.11.2018 14:00:00 5,4 -17,3 5,7 1,2 2,7 6,6 56 30 71 38 E 75 60 0,0
16.11.2018 13:00:00 5,9 -16,0 6,7 0,8 2,7 6,6 51 27 65 35 E 75 60 0,0
16.11.2018 12:00:00 7,0 -14,3 7,6 0,7 2,7 6,6 48 26 66 35 E 75 60 0,0
16.11.2018 11:00:00 7,1 -10,6 6,9 0,6 2,8 6,6 47 26 53 29 E 75 60 0,0
16.11.2018 10:00:00 7,5 -13,4 5,6 0,6 2,8 6,6 39 21 50 27 E 75 60 0,0
16.11.2018 09:00:00 8,2 -15,2 3,9 0,6 2,8 6,6 39 21 46 25 E 75 57 0,0
16.11.2018 08:00:00 8,9 -21,6 2,8 0,6 2,9 6,6 37 20 39 21 E 75 0 0,0
16.11.2018 07:00:00 8,0 -16,9 2,3 0,7 2,9 6,6 29 16 32 17 E 75 0 0,0
16.11.2018 06:00:00 7,6 -9,0 1,9 0,7 3,0 6,6 26 14 30 16 E 75 0 0,0
16.11.2018 05:00:00 6,7 -4,0 1,4 0,7 3,0 6,6 24 13 28 15 E 75 0 0,0
16.11.2018 04:00:00 6,4 -3,1 1,4 0,7 3,1 6,6 26 14 28 15 E 75 0 0,0
16.11.2018 03:00:00 6,8 -4,9 0,3 0,8 3,1 6,7 16 9 18 10 ESE 75 0 0,0
16.11.2018 02:00:00 7,9 -4,5 -0,7 0,8 3,2 6,7 6 4 13 7 SE 75 0 0,0
16.11.2018 01:00:00 7,6 -4,8 0,8 0,9 3,2 6,7 14 8 19 10 ESE 67 0 0,0
16.11.2018 00:00:00 7,4 -8,3 0,2 0,9 3,3 6,7 16 9 17 9 SE 64 0 0,0
15.11.2018 23:00:00 7,4 -16,3 -1,3 1,0 3,4 6,7 10 6 13 7 SE 74 0 0,0
15.11.2018 22:00:00 7,1 -11,4 -3,8 1,1 3,4 6,7 10 5 12 7 ESE 75 0 0,0
15.11.2018 21:00:00 5,4 -1,1 0,6 1,2 3,5 6,7 9 5 10 5 SSE 67 0 0,0
15.11.2018 20:00:00 5,8 -7,6 -3,5 1,4 3,5 6,7 0 0 7 4 N 75 0 0,0
15.11.2018 19:00:00 5,9 -2,5 -1,1 1,7 3,5 6,7 8 5 10 6 SW 75 0 0,0
15.11.2018 18:00:00 4,9 1,2 -1,0 2,4 3,4 6,7 0 0 8 5 N 71 0 0,0
15.11.2018 17:00:00 5,5 1,7 0,5 3,9 3,3 6,7 6 4 7 4 S 51 30 0,0
15.11.2018 16:00:00 7,2 0,5 6,4 4,8 3,1 6,7 5 3 8 4 E 75 60 0,0
15.11.2018 15:00:00 7,5 -1,9 8,2 4,7 3,0 6,7 6 3 13 7 WNW 55 60 0,0
15.11.2018 14:00:00 8,3 -1,8 9,5 3,4 3,0 6,7 5 3 10 5 NW 74 60 0,0
15.11.2018 13:00:00 8,3 -1,5 9,8 1,4 3,0 6,7 6 3 10 5 NW 60 60 0,0
15.11.2018 12:00:00 7,9 -3,3 9,0 0,7 3,0 6,7 6 3 9 5 WNW 75 60 0,0
15.11.2018 11:00:00 7,5 -4,2 7,9 0,7 3,1 6,7 4 2 8 4 WNW 66 60 0,0
15.11.2018 10:00:00 7,3 -3,6 5,5 0,7 3,1 6,7 2 1 10 5 SSW 75 60 0,0
15.11.2018 09:00:00 5,7 -5,6 -0,3 0,7 3,2 6,7 7 4 13 7 NE 73 59 0,0
15.11.2018 08:00:00 5,1 -3,2 0,3 0,7 3,2 6,7 12 7 14 8 N 70 0 0,0
15.11.2018 07:00:00 5,2 -2,7 1,7 0,7 3,3 6,7 11 6 12 7 NNW 74 0 0,0
15.11.2018 06:00:00 5,2 -2,5 0,3 0,8 3,4 6,7 10 5 12 6 N 73 0 0,0
15.11.2018 05:00:00 5,3 -2,2 2,0 0,8 3,4 6,7 11 6 13 7 NNW 75 0 0,0
15.11.2018 04:00:00 5,5 -2,4 -1,3 0,8 3,5 6,7 10 6 14 7 W 74 0 0,0
15.11.2018 03:00:00 6,0 -3,7 -0,7 0,9 3,6 6,7 11 6 12 7 WSW 73 0 0,0
15.11.2018 02:00:00 6,3 -4,6 -1,6 1,0 3,7 6,7 11 6 16 9 SSW 73 0 0,0
15.11.2018 01:00:00 6,4 -5,3 0,6 1,1 3,8 6,7 12 7 16 9 S 75 0 0,0
15.11.2018 00:00:00 6,4 -4,0 2,2 1,2 3,9 6,7 13 7 15 8 S 75 0 0,0
14.11.2018 23:00:00 6,5 -3,1 2,7 1,3 4,0 6,7 12 6 14 8 S 67 0 0,0
14.11.2018 22:00:00 6,8 -3,1 3,2 1,5 4,1 6,7 13 7 17 9 S 75 0 0,0
14.11.2018 21:00:00 6,7 -2,1 2,4 1,7 4,2 6,7 16 8 19 11 S 72 0 0,0
14.11.2018 20:00:00 6,7 -1,6 2,8 2,1 4,2 6,7 16 8 20 11 S 75 0 0,0
14.11.2018 19:00:00 7,1 -2,7 -0,7 2,7 4,2 6,7 7 4 14 8 SSE 75 0 0,0
14.11.2018 18:00:00 6,5 4,1 2,6 3,7 4,1 6,7 9 5 11 6 SSE 55 0 0,0
14.11.2018 17:00:00 7,3 3,3 2,6 5,1 3,8 6,7 9 5 11 6 S 67 31 0,0
14.11.2018 16:00:00 8,9 3,3 7,4 5,9 3,6 6,7 5 3 16 8 WSW 73 60 0,0
14.11.2018 15:00:00 8,6 3,0 9,3 5,7 3,4 6,7 9 5 17 9 SSW 40 60 0,0
14.11.2018 14:00:00 8,8 3,7 10,5 4,2 3,4 6,7 10 5 22 12 SW 59 60 0,0
14.11.2018 13:00:00 7,8 3,2 9,7 1,1 3,4 6,7 16 9 29 15 SSW 70 60 0,0
14.11.2018 12:00:00 7,3 4,1 8,9 0,7 3,5 6,7 21 11 27 14 S 75 60 0,0
14.11.2018 11:00:00 6,6 2,1 7,0 0,7 3,5 6,7 21 11 25 14 S 60 60 0,0
14.11.2018 10:00:00 6,9 1,9 5,4 0,7 3,6 6,7 14 8 19 10 S 63 60 0,0
14.11.2018 09:00:00 6,7 -0,2 2,4 0,7 3,6 6,7 12 6 18 10 SSW 75 60 0,0
14.11.2018 08:00:00 6,1 -5,5 0,4 0,7 3,7 6,7 18 10 22 12 S 75 1 0,0
14.11.2018 07:00:00 4,8 -2,3 -0,2 0,7 3,8 6,7 18 10 21 12 S 75 0 0,0
14.11.2018 06:00:00 6,0 -10,3 -1,6 0,8 3,9 6,7 19 10 23 13 SSW 75 0 0,0
14.11.2018 05:00:00 5,8 -9,5 -1,8 0,9 4,0 6,7 22 12 26 14 SSW 75 0 0,0
14.11.2018 04:00:00 5,5 -11,0 -1,2 0,9 4,1 6,7 22 12 26 14 SSW 75 0 0,0
14.11.2018 03:00:00 4,5 -5,2 -0,7 1,0 4,2 6,7 23 12 25 13 S 75 0 0,0
14.11.2018 02:00:00 2,9 1,2 -0,2 1,0 4,3 6,7 15 8 22 12 S 75 0 0,0
14.11.2018 01:00:00 2,8 1,0 0,1 1,1 4,4 6,7 17 9 20 11 S 75 0 0,0
14.11.2018 00:00:00 3,8 -0,9 -2,0 1,1 4,6 6,7 16 8 19 11 SSW 75 0 0,0
13.11.2018 23:00:00 3,3 -3,3 -1,8 1,2 4,7 6,7 16 8 22 12 SSW 69 0 0,0
13.11.2018 22:00:00 2,8 -1,8 -1,3 1,3 4,9 6,7 16 8 24 13 SSW 70 0 0,0
13.11.2018 21:00:00 2,4 -0,6 -1,0 1,5 5,1 6,7 17 9 21 11 SW 67 0 0,0
13.11.2018 20:00:00 2,3 -0,2 -0,3 1,7 5,2 6,7 17 9 26 14 WSW 70 0 0,0
13.11.2018 19:00:00 2,3 0,4 0,3 2,0 5,4 6,7 22 12 29 15 WSW 75 0 0,0
13.11.2018 18:00:00 2,0 1,0 0,4 2,7 5,5 6,7 21 12 34 18 WSW 63 0 0,0
13.11.2018 17:00:00 2,2 1,2 1,1 3,8 5,5 6,7 26 14 41 22 W 75 19 0,0
13.11.2018 16:00:00 2,3 2,1 2,4 4,7 5,5 6,7 27 14 35 19 WSW 0,5 0 0,0
13.11.2018 15:00:00 2,7 2,6 3,5 5,0 5,6 6,7 29 16 44 24 WSW 0,1 0 0,0
13.11.2018 14:00:00 2,8 1,9 3,6 4,8 5,6 6,7 37 20 51 28 SW 75 0 0,1
13.11.2018 13:00:00 2,6 2,0 3,5 5,0 5,7 6,7 35 19 45 25 SW 46 0 0,0
13.11.2018 12:00:00 3,1 0,0 3,3 4,7 5,7 6,7 35 19 56 31 WSW 64 0 0,1
13.11.2018 11:00:00 3,4 -0,3 3,1 4,6 5,8 6,7 41 22 61 33 WSW 63 0 0,2
13.11.2018 10:00:00 2,1 1,8 2,7 4,7 5,9 6,7 39 21 49 26 W 4,1 0 0,5
13.11.2018 09:00:00 2,8 2,6 3,4 5,0 5,9 6,7 29 16 40 22 WNW 0,1 0 1,4
13.11.2018 08:00:00 3,2 3,0 3,6 5,6 5,9 6,7 26 14 57 31 NW 0,1 0 2,2
13.11.2018 07:00:00 5,9 5,6 6,0 6,0 5,9 6,7 46 25 79 43 SW 0,1 0 0,1
13.11.2018 06:00:00 5,9 5,5 6,0 6,0 5,9 6,7 54 29 82 44 SW 0,2 0 1,0
13.11.2018 05:00:00 6,8 4,9 6,5 6,1 5,9 6,7 46 25 70 38 SW 39 0 0,0
13.11.2018 04:00:00 6,9 5,0 6,8 6,3 5,9 6,7 35 19 62 33 SW 52 0 0,0
13.11.2018 03:00:00 7,2 5,6 7,1 6,4 5,8 6,7 37 20 55 30 SW 58 0 0,0
13.11.2018 02:00:00 8,0 5,7 7,7 6,4 5,8 6,8 23 12 34 19 WSW 64 0 0,0
13.11.2018 01:00:00 8,3 5,5 7,7 6,4 5,8 6,8 23 13 40 22 SW 60 0 0,0
13.11.2018 00:00:00 8,9 5,2 8,2 6,4 5,8 6,8 37 20 45 25 SSW 65 0 0,0
12.11.2018 23:00:00 9,5 5,2 8,3 6,3 5,8 6,8 28 15 35 19 S 65 0 0,0
12.11.2018 22:00:00 9,0 5,2 8,1 6,3 5,7 6,8 22 12 29 15 S 75 0 0,0
12.11.2018 21:00:00 9,2 5,4 8,3 6,3 5,7 6,8 26 14 35 19 SSW 74 0 0,0
12.11.2018 20:00:00 9,3 5,4 8,0 6,4 5,7 6,8 30 16 37 20 SSW 67 0 0,0
12.11.2018 19:00:00 9,4 5,7 8,3 6,3 5,6 6,8 31 17 41 22 SW 75 0 0,0
12.11.2018 18:00:00 9,5 5,7 8,1 6,6 5,5 6,8 37 20 50 27 SW 73 0 0,0
12.11.2018 17:00:00 9,5 5,4 8,3 6,9 5,4 6,8 33 18 46 25 SW 69 2 0,0
12.11.2018 16:00:00 9,7 4,2 9,1 7,2 5,2 6,8 29 16 44 24 SW 74 3 0,0
12.11.2018 15:00:00 10,1 3,5 9,7 7,5 5,1 6,8 21 11 40 21 SSW 75 4 0,0
12.11.2018 14:00:00 10,2 3,3 10,0 7,6 4,9 6,8 24 13 44 24 SSW 75 8 0,0
12.11.2018 13:00:00 10,5 3,3 10,3 7,0 4,8 6,8 32 17 48 26 SSW 75 19 0,0
12.11.2018 12:00:00 10,8 2,8 11,6 6,2 4,7 6,8 33 18 49 26 SW 75 34 0,0
12.11.2018 11:00:00 10,1 0,9 9,3 4,9 4,7 6,8 29 16 41 22 SSW 75 8 0,0
12.11.2018 10:00:00 9,0 0,6 8,0 4,1 4,7 6,8 30 16 41 22 S 75 13 0,0
12.11.2018 09:00:00 9,2 0,5 7,7 3,6 4,8 6,8 29 16 42 23 S 75 18 0,0
12.11.2018 08:00:00 9,7 0,0 7,2 3,2 4,8 6,8 33 18 45 25 SSE 71 0 0,0
12.11.2018 07:00:00 8,9 0,4 5,8 3,2 4,9 6,8 37 20 51 28 SE 75 0 0,0
12.11.2018 06:00:00 8,7 0,2 5,3 3,3 5,0 6,8 37 20 50 27 SE 75 0 0,0
12.11.2018 05:00:00 8,2 0,5 4,8 3,3 5,0 6,8 39 21 49 26 SE 75 0 0,0

tt = Température de l'air
td = dewpoint
tt 5cm = Température de l'air 5cm
tt -5cm = Température de l'air -5cm
tt -20cm = Température de l'air -20cm
tt -100cm = Température de l'air -100cm
ff = Vitesse du vent
fx = gusts
dd = Direction du vent
vv = visibility
sd = Ensoleillement
rr = Quantités de précipitations

stations d'obs. à proximité